Beloeil, Canada
Current Conditions -  °F | °C
As of 5:00 AM on Thursday 23 Oct 2014 (Local Time) from CYHU Reporting Station
Overcast Overcast  
Wind Chill: 37°   Ceiling: 4200
Heat Index: 45°   Visibility: 9mi
Dew Point: 34°   Wind: 17mph
Humidity: 66%   Direction: 40°NE
Pressure: 30.11"   Gusts: 30mph
Location:  45.57°N, 73.2°W
Report Text: CYHU 230900Z AUTO 04015G26KT 9SM OVC042 07/01 A3011 RMK SLP198
Loading
Personal Weather Stations






























Interactive Weather Map
Tropical Storm Tracking
New forecast layout! Learn more

10-Day Weather Forecast

Advertisements
Track Severe Weather on mobile